sensor_id;sensor_type;location;lat;lon;timestamp;P1;durP1;ratioP1;P2;durP2;ratioP2
76204;SDS011;64986;55.672;37.628;2023-03-11T00:00:05;7.20;;;3.30;;
76204;SDS011;64986;55.672;37.628;2023-03-11T00:02:37;8.35;;;3.53;;
76204;SDS011;64986;55.672;37.628;2023-03-11T00:05:06;11.35;;;3.97;;
76204;SDS011;64986;55.672;37.628;2023-03-11T00:07:32;11.38;;;3.30;;
76204;SDS011;64986;55.672;37.628;2023-03-11T00:09:58;12.90;;;3.83;;
76204;SDS011;64986;55.672;37.628;2023-03-11T00:12:23;5.40;;;3.03;;
76204;SDS011;64986;55.672;37.628;2023-03-11T00:14:49;11.98;;;2.97;;
76204;SDS011;64986;55.672;37.628;2023-03-11T00:17:14;7.70;;;3.47;;
76204;SDS011;64986;55.672;37.628;2023-03-11T00:19:40;8.85;;;3.20;;
76204;SDS011;64986;55.672;37.628;2023-03-11T00:22:05;12.52;;;3.95;;
76204;SDS011;64986;55.672;37.628;2023-03-11T00:24:31;11.23;;;4.28;;
76204;SDS011;64986;55.672;37.628;2023-03-11T00:26:56;14.77;;;5.10;;
76204;SDS011;64986;55.672;37.628;2023-03-11T00:29:22;9.20;;;3.55;;
76204;SDS011;64986;55.672;37.628;2023-03-11T00:31:47;10.15;;;4.57;;
76204;SDS011;64986;55.672;37.628;2023-03-11T00:34:13;7.97;;;3.83;;
76204;SDS011;64986;55.672;37.628;2023-03-11T00:36:38;10.25;;;4.00;;
76204;SDS011;64986;55.672;37.628;2023-03-11T00:39:04;11.93;;;4.38;;
76204;SDS011;64986;55.672;37.628;2023-03-11T00:41:35;10.45;;;4.63;;
76204;SDS011;64986;55.672;37.628;2023-03-11T00:44:01;19.35;;;6.88;;
76204;SDS011;64986;55.672;37.628;2023-03-11T00:46:27;13.30;;;5.65;;
76204;SDS011;64986;55.672;37.628;2023-03-11T00:48:54;14.50;;;4.95;;
76204;SDS011;64986;55.672;37.628;2023-03-11T00:51:19;11.88;;;5.60;;
76204;SDS011;64986;55.672;37.628;2023-03-11T00:53:45;10.50;;;4.07;;
76204;SDS011;64986;55.672;37.628;2023-03-11T00:56:11;15.15;;;5.22;;
76204;SDS011;64986;55.672;37.628;2023-03-11T00:58:39;13.52;;;5.63;;
76204;SDS011;64986;55.672;37.628;2023-03-11T01:01:10;8.15;;;4.07;;
76204;SDS011;64986;55.672;37.628;2023-03-11T01:03:41;12.63;;;4.28;;
76204;SDS011;64986;55.672;37.628;2023-03-11T01:06:07;10.45;;;3.97;;
76204;SDS011;64986;55.672;37.628;2023-03-11T01:08:33;13.13;;;4.88;;
76204;SDS011;64986;55.672;37.628;2023-03-11T01:10:59;16.48;;;4.07;;
76204;SDS011;64986;55.672;37.628;2023-03-11T01:13:25;16.05;;;4.20;;
76204;SDS011;64986;55.672;37.628;2023-03-11T01:15:52;15.27;;;6.20;;
76204;SDS011;64986;55.672;37.628;2023-03-11T01:18:18;10.60;;;3.70;;
76204;SDS011;64986;55.672;37.628;2023-03-11T01:20:44;20.20;;;4.25;;
76204;SDS011;64986;55.672;37.628;2023-03-11T01:23:11;13.25;;;4.68;;
76204;SDS011;64986;55.672;37.628;2023-03-11T01:25:38;14.15;;;4.45;;
76204;SDS011;64986;55.672;37.628;2023-03-11T01:28:04;13.95;;;4.40;;
76204;SDS011;64986;55.672;37.628;2023-03-11T01:30:32;11.50;;;3.88;;
76204;SDS011;64986;55.672;37.628;2023-03-11T01:32:59;12.82;;;3.97;;
76204;SDS011;64986;55.672;37.628;2023-03-11T01:35:26;11.00;;;5.13;;
76204;SDS011;64986;55.672;37.628;2023-03-11T01:37:53;16.20;;;5.32;;
76204;SDS011;64986;55.672;37.628;2023-03-11T01:40:20;8.15;;;4.05;;
76204;SDS011;64986;55.672;37.628;2023-03-11T01:42:51;10.90;;;4.40;;
76204;SDS011;64986;55.672;37.628;2023-03-11T01:48:14;15.60;;;5.38;;
76204;SDS011;64986;55.672;37.628;2023-03-11T01:50:42;12.27;;;5.22;;
76204;SDS011;64986;55.672;37.628;2023-03-11T01:53:10;6.43;;;2.40;;
76204;SDS011;64986;55.672;37.628;2023-03-11T01:55:37;12.80;;;4.45;;
76204;SDS011;64986;55.672;37.628;2023-03-11T01:58:04;15.52;;;5.05;;
76204;SDS011;64986;55.672;37.628;2023-03-11T02:00:35;17.67;;;6.10;;
76204;SDS011;64986;55.672;37.628;2023-03-11T02:03:01;17.88;;;5.03;;
76204;SDS011;64986;55.672;37.628;2023-03-11T02:05:35;15.95;;;6.88;;
76204;SDS011;64986;55.672;37.628;2023-03-11T02:08:00;16.17;;;5.97;;
76204;SDS011;64986;55.672;37.628;2023-03-11T02:10:27;16.08;;;6.22;;
76204;SDS011;64986;55.672;37.628;2023-03-11T02:12:52;14.55;;;5.72;;
76204;SDS011;64986;55.672;37.628;2023-03-11T02:15:18;19.67;;;5.70;;
76204;SDS011;64986;55.672;37.628;2023-03-11T02:17:44;17.58;;;6.40;;
76204;SDS011;64986;55.672;37.628;2023-03-11T02:20:12;21.10;;;9.07;;
76204;SDS011;64986;55.672;37.628;2023-03-11T02:22:41;15.55;;;5.53;;
76204;SDS011;64986;55.672;37.628;2023-03-11T02:27:40;23.08;;;7.40;;
76204;SDS011;64986;55.672;37.628;2023-03-11T02:30:10;19.85;;;7.18;;
76204;SDS011;64986;55.672;37.628;2023-03-11T02:32:39;16.35;;;6.30;;
76204;SDS011;64986;55.672;37.628;2023-03-11T02:35:08;12.93;;;4.95;;
76204;SDS011;64986;55.672;37.628;2023-03-11T02:37:35;17.52;;;6.15;;
76204;SDS011;64986;55.672;37.628;2023-03-11T02:42:47;16.88;;;7.07;;
76204;SDS011;64986;55.672;37.628;2023-03-11T02:45:16;19.08;;;7.57;;
76204;SDS011;64986;55.672;37.628;2023-03-11T02:47:42;16.48;;;6.80;;
76204;SDS011;64986;55.672;37.628;2023-03-11T02:50:10;15.35;;;5.88;;
76204;SDS011;64986;55.672;37.628;2023-03-11T02:52:37;15.18;;;6.72;;
76204;SDS011;64986;55.672;37.628;2023-03-11T02:55:03;16.88;;;7.65;;
76204;SDS011;64986;55.672;37.628;2023-03-11T02:57:29;19.40;;;7.03;;
76204;SDS011;64986;55.672;37.628;2023-03-11T02:59:55;14.98;;;6.55;;
76204;SDS011;64986;55.672;37.628;2023-03-11T03:02:20;22.30;;;8.50;;
76204;SDS011;64986;55.672;37.628;2023-03-11T03:04:46;21.73;;;8.00;;
76204;SDS011;64986;55.672;37.628;2023-03-11T03:07:11;21.50;;;7.38;;
76204;SDS011;64986;55.672;37.628;2023-03-11T03:09:37;13.65;;;6.28;;
76204;SDS011;64986;55.672;37.628;2023-03-11T03:12:03;15.98;;;5.97;;
76204;SDS011;64986;55.672;37.628;2023-03-11T03:14:29;16.10;;;6.82;;
76204;SDS011;64986;55.672;37.628;2023-03-11T03:16:55;15.20;;;6.95;;
76204;SDS011;64986;55.672;37.628;2023-03-11T03:19:20;26.45;;;9.75;;
76204;SDS011;64986;55.672;37.628;2023-03-11T03:21:46;20.75;;;9.82;;
76204;SDS011;64986;55.672;37.628;2023-03-11T03:24:12;15.45;;;6.85;;
76204;SDS011;64986;55.672;37.628;2023-03-11T03:26:37;18.90;;;8.80;;
76204;SDS011;64986;55.672;37.628;2023-03-11T03:29:03;16.55;;;7.40;;
76204;SDS011;64986;55.672;37.628;2023-03-11T03:31:29;14.98;;;7.07;;
76204;SDS011;64986;55.672;37.628;2023-03-11T03:33:55;18.63;;;8.70;;
76204;SDS011;64986;55.672;37.628;2023-03-11T03:36:20;16.45;;;8.75;;
76204;SDS011;64986;55.672;37.628;2023-03-11T03:38:46;14.30;;;6.85;;
76204;SDS011;64986;55.672;37.628;2023-03-11T03:41:14;18.35;;;8.40;;
76204;SDS011;64986;55.672;37.628;2023-03-11T03:43:40;14.02;;;6.25;;
76204;SDS011;64986;55.672;37.628;2023-03-11T03:46:06;17.52;;;8.35;;
76204;SDS011;64986;55.672;37.628;2023-03-11T03:48:31;16.55;;;8.55;;
76204;SDS011;64986;55.672;37.628;2023-03-11T03:51:08;16.17;;;8.57;;
76204;SDS011;64986;55.672;37.628;2023-03-11T03:53:35;15.43;;;7.22;;
76204;SDS011;64986;55.672;37.628;2023-03-11T03:56:02;18.85;;;8.27;;
76204;SDS011;64986;55.672;37.628;2023-03-11T03:58:29;15.65;;;6.63;;
76204;SDS011;64986;55.672;37.628;2023-03-11T04:00:55;21.48;;;10.30;;
76204;SDS011;64986;55.672;37.628;2023-03-11T04:03:21;21.55;;;9.02;;
76204;SDS011;64986;55.672;37.628;2023-03-11T04:05:47;20.90;;;8.98;;
76204;SDS011;64986;55.672;37.628;2023-03-11T04:08:12;20.55;;;9.70;;
76204;SDS011;64986;55.672;37.628;2023-03-11T04:10:38;15.23;;;7.10;;
76204;SDS011;64986;55.672;37.628;2023-03-11T04:13:04;18.38;;;8.93;;
76204;SDS011;64986;55.672;37.628;2023-03-11T04:15:29;24.95;;;11.10;;
76204;SDS011;64986;55.672;37.628;2023-03-11T04:17:55;20.55;;;8.98;;
76204;SDS011;64986;55.672;37.628;2023-03-11T04:20:20;25.60;;;9.35;;
76204;SDS011;64986;55.672;37.628;2023-03-11T04:22:46;20.90;;;8.43;;
76204;SDS011;64986;55.672;37.628;2023-03-11T04:25:11;16.70;;;6.95;;
76204;SDS011;64986;55.672;37.628;2023-03-11T04:27:37;17.48;;;7.13;;
76204;SDS011;64986;55.672;37.628;2023-03-11T04:30:03;22.67;;;10.00;;
76204;SDS011;64986;55.672;37.628;2023-03-11T04:32:30;23.92;;;10.45;;
76204;SDS011;64986;55.672;37.628;2023-03-11T04:34:56;26.70;;;11.40;;
76204;SDS011;64986;55.672;37.628;2023-03-11T04:37:21;20.00;;;9.70;;
76204;SDS011;64986;55.672;37.628;2023-03-11T04:39:47;21.50;;;8.98;;
76204;SDS011;64986;55.672;37.628;2023-03-11T04:42:17;20.85;;;9.55;;
76204;SDS011;64986;55.672;37.628;2023-03-11T04:44:43;21.13;;;10.20;;
76204;SDS011;64986;55.672;37.628;2023-03-11T04:47:08;28.50;;;10.45;;
76204;SDS011;64986;55.672;37.628;2023-03-11T04:49:34;21.00;;;9.57;;
76204;SDS011;64986;55.672;37.628;2023-03-11T04:51:59;26.27;;;11.18;;
76204;SDS011;64986;55.672;37.628;2023-03-11T04:54:25;20.98;;;11.13;;
76204;SDS011;64986;55.672;37.628;2023-03-11T04:56:51;15.77;;;7.32;;
76204;SDS011;64986;55.672;37.628;2023-03-11T04:59:16;16.33;;;7.43;;
76204;SDS011;64986;55.672;37.628;2023-03-11T05:01:42;23.05;;;10.43;;
76204;SDS011;64986;55.672;37.628;2023-03-11T05:04:07;23.55;;;10.55;;
76204;SDS011;64986;55.672;37.628;2023-03-11T05:06:33;26.48;;;8.93;;
76204;SDS011;64986;55.672;37.628;2023-03-11T05:08:58;25.60;;;11.82;;
76204;SDS011;64986;55.672;37.628;2023-03-11T05:11:24;19.65;;;9.73;;
76204;SDS011;64986;55.672;37.628;2023-03-11T05:13:49;19.25;;;8.68;;
76204;SDS011;64986;55.672;37.628;2023-03-11T05:16:15;21.95;;;9.98;;
76204;SDS011;64986;55.672;37.628;2023-03-11T05:18:41;23.10;;;9.23;;
76204;SDS011;64986;55.672;37.628;2023-03-11T05:21:06;19.38;;;8.82;;
76204;SDS011;64986;55.672;37.628;2023-03-11T05:23:32;21.48;;;8.52;;
76204;SDS011;64986;55.672;37.628;2023-03-11T05:25:57;25.67;;;10.80;;
76204;SDS011;64986;55.672;37.628;2023-03-11T05:28:23;24.00;;;10.95;;
76204;SDS011;64986;55.672;37.628;2023-03-11T05:30:48;21.63;;;9.25;;
76204;SDS011;64986;55.672;37.628;2023-03-11T05:33:15;14.75;;;8.25;;
76204;SDS011;64986;55.672;37.628;2023-03-11T05:35:40;9.85;;;3.60;;
76204;SDS011;64986;55.672;37.628;2023-03-11T05:38:07;20.73;;;9.00;;
76204;SDS011;64986;55.672;37.628;2023-03-11T05:40:32;19.33;;;8.70;;
76204;SDS011;64986;55.672;37.628;2023-03-11T05:42:58;18.90;;;8.07;;
76204;SDS011;64986;55.672;37.628;2023-03-11T05:45:24;18.77;;;9.02;;
76204;SDS011;64986;55.672;37.628;2023-03-11T05:47:50;21.83;;;9.85;;
76204;SDS011;64986;55.672;37.628;2023-03-11T05:50:16;16.02;;;8.30;;
76204;SDS011;64986;55.672;37.628;2023-03-11T05:52:42;16.67;;;7.65;;
76204;SDS011;64986;55.672;37.628;2023-03-11T05:55:08;22.85;;;11.45;;
76204;SDS011;64986;55.672;37.628;2023-03-11T05:57:36;18.88;;;8.20;;
76204;SDS011;64986;55.672;37.628;2023-03-11T06:00:03;12.55;;;6.68;;
76204;SDS011;64986;55.672;37.628;2023-03-11T06:02:36;16.33;;;7.63;;
76204;SDS011;64986;55.672;37.628;2023-03-11T06:05:04;15.23;;;8.40;;
76204;SDS011;64986;55.672;37.628;2023-03-11T06:07:30;24.42;;;10.07;;
76204;SDS011;64986;55.672;37.628;2023-03-11T06:09:55;22.67;;;11.65;;
76204;SDS011;64986;55.672;37.628;2023-03-11T06:12:21;20.95;;;9.52;;
76204;SDS011;64986;55.672;37.628;2023-03-11T06:14:46;17.52;;;8.55;;
76204;SDS011;64986;55.672;37.628;2023-03-11T06:17:12;21.55;;;8.88;;
76204;SDS011;64986;55.672;37.628;2023-03-11T06:19:37;13.07;;;6.57;;
76204;SDS011;64986;55.672;37.628;2023-03-11T06:22:03;16.90;;;8.15;;
76204;SDS011;64986;55.672;37.628;2023-03-11T06:24:28;19.52;;;8.75;;
76204;SDS011;64986;55.672;37.628;2023-03-11T06:26:54;15.35;;;7.25;;
76204;SDS011;64986;55.672;37.628;2023-03-11T06:29:20;14.13;;;7.65;;
76204;SDS011;64986;55.672;37.628;2023-03-11T06:31:48;16.65;;;8.55;;
76204;SDS011;64986;55.672;37.628;2023-03-11T06:34:14;15.10;;;7.50;;
76204;SDS011;64986;55.672;37.628;2023-03-11T06:36:39;17.58;;;7.80;;
76204;SDS011;64986;55.672;37.628;2023-03-11T06:39:05;12.93;;;6.45;;
76204;SDS011;64986;55.672;37.628;2023-03-11T06:41:34;19.33;;;8.95;;
76204;SDS011;64986;55.672;37.628;2023-03-11T06:43:59;15.50;;;7.13;;
76204;SDS011;64986;55.672;37.628;2023-03-11T06:46:25;17.92;;;7.97;;
76204;SDS011;64986;55.672;37.628;2023-03-11T06:48:51;17.77;;;7.55;;
76204;SDS011;64986;55.672;37.628;2023-03-11T06:51:18;18.45;;;8.00;;
76204;SDS011;64986;55.672;37.628;2023-03-11T06:53:53;14.43;;;6.53;;
76204;SDS011;64986;55.672;37.628;2023-03-11T06:56:19;17.95;;;7.00;;
76204;SDS011;64986;55.672;37.628;2023-03-11T06:58:45;17.88;;;7.35;;
76204;SDS011;64986;55.672;37.628;2023-03-11T07:01:15;9.48;;;5.15;;
76204;SDS011;64986;55.672;37.628;2023-03-11T07:03:45;26.65;;;8.77;;
76204;SDS011;64986;55.672;37.628;2023-03-11T07:06:15;20.55;;;8.07;;
76204;SDS011;64986;55.672;37.628;2023-03-11T07:08:42;18.05;;;7.40;;
76204;SDS011;64986;55.672;37.628;2023-03-11T07:11:09;15.52;;;7.43;;
76204;SDS011;64986;55.672;37.628;2023-03-11T07:13:41;16.02;;;7.60;;
76204;SDS011;64986;55.672;37.628;2023-03-11T07:16:07;10.90;;;5.15;;
76204;SDS011;64986;55.672;37.628;2023-03-11T07:18:36;18.45;;;7.97;;
76204;SDS011;64986;55.672;37.628;2023-03-11T07:21:03;15.10;;;6.97;;
76204;SDS011;64986;55.672;37.628;2023-03-11T07:23:31;23.77;;;9.68;;
76204;SDS011;64986;55.672;37.628;2023-03-11T07:25:56;14.65;;;7.30;;
76204;SDS011;64986;55.672;37.628;2023-03-11T07:28:23;22.40;;;8.75;;
76204;SDS011;64986;55.672;37.628;2023-03-11T07:30:50;14.18;;;6.50;;
76204;SDS011;64986;55.672;37.628;2023-03-11T07:33:15;13.52;;;6.63;;
76204;SDS011;64986;55.672;37.628;2023-03-11T07:35:41;19.80;;;7.75;;
76204;SDS011;64986;55.672;37.628;2023-03-11T07:38:08;16.60;;;7.47;;
76204;SDS011;64986;55.672;37.628;2023-03-11T07:40:34;17.00;;;8.57;;
76204;SDS011;64986;55.672;37.628;2023-03-11T07:43:00;14.55;;;6.68;;
76204;SDS011;64986;55.672;37.628;2023-03-11T07:45:25;11.02;;;5.72;;
76204;SDS011;64986;55.672;37.628;2023-03-11T07:47:51;9.13;;;4.80;;
76204;SDS011;64986;55.672;37.628;2023-03-11T07:50:16;12.38;;;4.97;;
76204;SDS011;64986;55.672;37.628;2023-03-11T07:52:43;10.20;;;5.80;;
76204;SDS011;64986;55.672;37.628;2023-03-11T07:55:09;14.30;;;6.28;;
76204;SDS011;64986;55.672;37.628;2023-03-11T07:57:34;11.82;;;4.80;;
76204;SDS011;64986;55.672;37.628;2023-03-11T08:00:00;15.27;;;6.55;;
76204;SDS011;64986;55.672;37.628;2023-03-11T08:02:26;9.63;;;5.15;;
76204;SDS011;64986;55.672;37.628;2023-03-11T08:04:52;11.45;;;6.10;;
76204;SDS011;64986;55.672;37.628;2023-03-11T08:07:17;11.45;;;5.95;;
76204;SDS011;64986;55.672;37.628;2023-03-11T08:09:44;10.88;;;5.25;;
76204;SDS011;64986;55.672;37.628;2023-03-11T08:12:10;13.43;;;6.57;;
76204;SDS011;64986;55.672;37.628;2023-03-11T08:14:36;11.50;;;6.45;;
76204;SDS011;64986;55.672;37.628;2023-03-11T08:17:04;13.25;;;6.50;;
76204;SDS011;64986;55.672;37.628;2023-03-11T08:19:30;7.45;;;3.53;;
76204;SDS011;64986;55.672;37.628;2023-03-11T08:21:55;10.60;;;5.55;;
76204;SDS011;64986;55.672;37.628;2023-03-11T08:24:21;10.27;;;5.55;;
76204;SDS011;64986;55.672;37.628;2023-03-11T08:26:46;11.20;;;5.47;;
76204;SDS011;64986;55.672;37.628;2023-03-11T08:29:12;13.68;;;7.00;;
76204;SDS011;64986;55.672;37.628;2023-03-11T08:31:37;11.98;;;6.28;;
76204;SDS011;64986;55.672;37.628;2023-03-11T08:34:04;10.18;;;5.03;;
76204;SDS011;64986;55.672;37.628;2023-03-11T08:36:34;12.32;;;5.40;;
76204;SDS011;64986;55.672;37.628;2023-03-11T08:38:59;11.55;;;5.15;;
76204;SDS011;64986;55.672;37.628;2023-03-11T08:41:25;10.80;;;5.13;;
76204;SDS011;64986;55.672;37.628;2023-03-11T08:43:51;14.80;;;6.28;;
76204;SDS011;64986;55.672;37.628;2023-03-11T08:46:27;9.88;;;5.47;;
76204;SDS011;64986;55.672;37.628;2023-03-11T08:48:55;20.65;;;7.13;;
76204;SDS011;64986;55.672;37.628;2023-03-11T08:51:22;11.23;;;5.25;;
76204;SDS011;64986;55.672;37.628;2023-03-11T08:53:48;10.32;;;5.65;;
76204;SDS011;64986;55.672;37.628;2023-03-11T08:56:15;25.50;;;6.18;;
76204;SDS011;64986;55.672;37.628;2023-03-11T08:58:42;11.30;;;4.68;;
76204;SDS011;64986;55.672;37.628;2023-03-11T09:01:09;9.85;;;4.65;;
76204;SDS011;64986;55.672;37.628;2023-03-11T09:03:36;11.85;;;4.78;;
76204;SDS011;64986;55.672;37.628;2023-03-11T09:06:03;12.63;;;5.07;;
76204;SDS011;64986;55.672;37.628;2023-03-11T09:08:30;14.05;;;4.95;;
76204;SDS011;64986;55.672;37.628;2023-03-11T09:10:56;13.02;;;4.80;;
76204;SDS011;64986;55.672;37.628;2023-03-11T09:13:22;10.32;;;5.32;;
76204;SDS011;64986;55.672;37.628;2023-03-11T09:15:48;10.00;;;5.47;;
76204;SDS011;64986;55.672;37.628;2023-03-11T09:18:15;20.63;;;7.35;;
76204;SDS011;64986;55.672;37.628;2023-03-11T09:20:42;13.32;;;5.45;;
76204;SDS011;64986;55.672;37.628;2023-03-11T09:23:08;17.85;;;7.20;;
76204;SDS011;64986;55.672;37.628;2023-03-11T09:25:36;11.55;;;6.63;;
76204;SDS011;64986;55.672;37.628;2023-03-11T09:28:01;11.23;;;5.30;;
76204;SDS011;64986;55.672;37.628;2023-03-11T09:30:27;17.40;;;6.03;;
76204;SDS011;64986;55.672;37.628;2023-03-11T09:32:53;15.75;;;6.38;;
76204;SDS011;64986;55.672;37.628;2023-03-11T09:35:18;10.40;;;4.85;;
76204;SDS011;64986;55.672;37.628;2023-03-11T09:37:44;11.52;;;5.88;;
76204;SDS011;64986;55.672;37.628;2023-03-11T09:40:11;15.40;;;6.50;;
76204;SDS011;64986;55.672;37.628;2023-03-11T09:43:02;8.20;;;4.20;;
76204;SDS011;64986;55.672;37.628;2023-03-11T09:45:37;13.63;;;4.93;;
76204;SDS011;64986;55.672;37.628;2023-03-11T09:48:26;12.07;;;5.00;;
76204;SDS011;64986;55.672;37.628;2023-03-11T09:50:59;10.45;;;4.82;;
76204;SDS011;64986;55.672;37.628;2023-03-11T09:56:07;10.95;;;4.55;;
76204;SDS011;64986;55.672;37.628;2023-03-11T10:03:41;14.32;;;6.95;;
76204;SDS011;64986;55.672;37.628;2023-03-11T10:08:39;9.82;;;4.65;;
76204;SDS011;64986;55.672;37.628;2023-03-11T10:14:10;12.50;;;5.95;;
76204;SDS011;64986;55.672;37.628;2023-03-11T10:19:55;8.80;;;3.33;;
76204;SDS011;64986;55.672;37.628;2023-03-11T10:25:12;9.02;;;4.95;;
76204;SDS011;64986;55.672;37.628;2023-03-11T10:27:51;10.55;;;4.95;;
76204;SDS011;64986;55.672;37.628;2023-03-11T10:30:44;7.90;;;4.20;;
76204;SDS011;64986;55.672;37.628;2023-03-11T10:33:28;11.80;;;6.03;;
76204;SDS011;64986;55.672;37.628;2023-03-11T10:36:09;13.30;;;5.38;;
76204;SDS011;64986;55.672;37.628;2023-03-11T10:38:43;11.65;;;5.07;;
76204;SDS011;64986;55.672;37.628;2023-03-11T10:41:49;12.18;;;5.10;;
76204;SDS011;64986;55.672;37.628;2023-03-11T10:44:35;13.43;;;6.35;;
76204;SDS011;64986;55.672;37.628;2023-03-11T10:47:02;18.75;;;6.45;;
76204;SDS011;64986;55.672;37.628;2023-03-11T10:49:29;11.90;;;5.97;;
76204;SDS011;64986;55.672;37.628;2023-03-11T10:51:54;10.75;;;4.50;;
76204;SDS011;64986;55.672;37.628;2023-03-11T10:57:24;9.48;;;4.90;;
76204;SDS011;64986;55.672;37.628;2023-03-11T10:59:57;15.20;;;5.93;;
76204;SDS011;64986;55.672;37.628;2023-03-11T11:02:25;15.95;;;5.82;;
76204;SDS011;64986;55.672;37.628;2023-03-11T11:07:47;13.73;;;6.35;;
76204;SDS011;64986;55.672;37.628;2023-03-11T11:10:15;21.00;;;7.28;;
76204;SDS011;64986;55.672;37.628;2023-03-11T11:15:21;12.52;;;4.97;;
76204;SDS011;64986;55.672;37.628;2023-03-11T11:17:58;16.25;;;8.18;;
76204;SDS011;64986;55.672;37.628;2023-03-11T11:20:26;13.82;;;6.75;;
76204;SDS011;64986;55.672;37.628;2023-03-11T11:22:54;12.27;;;5.47;;
76204;SDS011;64986;55.672;37.628;2023-03-11T11:25:40;13.07;;;6.28;;
76204;SDS011;64986;55.672;37.628;2023-03-11T11:28:17;10.57;;;4.88;;
76204;SDS011;64986;55.672;37.628;2023-03-11T11:37:18;11.43;;;5.55;;
76204;SDS011;64986;55.672;37.628;2023-03-11T11:40:05;6.63;;;3.72;;
76204;SDS011;64986;55.672;37.628;2023-03-11T11:42:46;11.27;;;5.20;;
76204;SDS011;64986;55.672;37.628;2023-03-11T11:45:15;9.68;;;4.60;;
76204;SDS011;64986;55.672;37.628;2023-03-11T11:50:39;12.43;;;6.13;;
76204;SDS011;64986;55.672;37.628;2023-03-11T11:55:54;11.35;;;4.40;;
76204;SDS011;64986;55.672;37.628;2023-03-11T11:58:20;12.27;;;6.57;;
76204;SDS011;64986;55.672;37.628;2023-03-11T12:11:32;12.20;;;7.07;;
76204;SDS011;64986;55.672;37.628;2023-03-11T12:15:07;14.93;;;6.43;;
76204;SDS011;64986;55.672;37.628;2023-03-11T12:17:03;18.27;;;8.20;;
76204;SDS011;64986;55.672;37.628;2023-03-11T12:22:21;11.27;;;5.47;;
76204;SDS011;64986;55.672;37.628;2023-03-11T12:25:16;17.27;;;6.60;;
76204;SDS011;64986;55.672;37.628;2023-03-11T12:30:53;11.70;;;5.00;;
76204;SDS011;64986;55.672;37.628;2023-03-11T12:35:57;11.13;;;5.72;;
76204;SDS011;64986;55.672;37.628;2023-03-11T12:38:26;10.80;;;5.57;;
76204;SDS011;64986;55.672;37.628;2023-03-11T12:40:59;15.02;;;6.20;;
76204;SDS011;64986;55.672;37.628;2023-03-11T12:45:57;11.82;;;5.72;;
76204;SDS011;64986;55.672;37.628;2023-03-11T12:48:24;7.80;;;4.53;;
76204;SDS011;64986;55.672;37.628;2023-03-11T12:53:51;11.02;;;5.88;;
76204;SDS011;64986;55.672;37.628;2023-03-11T13:04:29;9.00;;;4.88;;
76204;SDS011;64986;55.672;37.628;2023-03-11T13:12:43;11.37;;;5.23;;
76204;SDS011;64986;55.672;37.628;2023-03-11T13:15:18;15.85;;;7.15;;
76204;SDS011;64986;55.672;37.628;2023-03-11T13:26:09;12.82;;;4.93;;
76204;SDS011;64986;55.672;37.628;2023-03-11T13:31:36;15.27;;;7.53;;
76204;SDS011;64986;55.672;37.628;2023-03-11T13:42:36;12.85;;;5.90;;
76204;SDS011;64986;55.672;37.628;2023-03-11T13:45:07;12.25;;;4.72;;
76204;SDS011;64986;55.672;37.628;2023-03-11T13:47:43;15.18;;;5.72;;
76204;SDS011;64986;55.672;37.628;2023-03-11T13:50:17;11.63;;;5.90;;
76204;SDS011;64986;55.672;37.628;2023-03-11T13:52:50;9.52;;;4.43;;
76204;SDS011;64986;55.672;37.628;2023-03-11T13:57:53;12.38;;;6.13;;
76204;SDS011;64986;55.672;37.628;2023-03-11T14:00:24;9.30;;;5.05;;
76204;SDS011;64986;55.672;37.628;2023-03-11T14:03:00;10.85;;;5.07;;
76204;SDS011;64986;55.672;37.628;2023-03-11T14:05:30;11.50;;;5.22;;
76204;SDS011;64986;55.672;37.628;2023-03-11T14:10:55;11.88;;;6.22;;
76204;SDS011;64986;55.672;37.628;2023-03-11T14:13:39;10.82;;;6.28;;
76204;SDS011;64986;55.672;37.628;2023-03-11T14:18:40;15.35;;;5.53;;
76204;SDS011;64986;55.672;37.628;2023-03-11T14:21:11;11.98;;;5.30;;
76204;SDS011;64986;55.672;37.628;2023-03-11T14:23:42;10.27;;;6.13;;
76204;SDS011;64986;55.672;37.628;2023-03-11T14:26:28;18.45;;;7.93;;
76204;SDS011;64986;55.672;37.628;2023-03-11T14:29:09;16.88;;;7.32;;
76204;SDS011;64986;55.672;37.628;2023-03-11T14:31:43;15.73;;;6.47;;
76204;SDS011;64986;55.672;37.628;2023-03-11T14:34:18;9.70;;;4.75;;
76204;SDS011;64986;55.672;37.628;2023-03-11T14:36:46;15.40;;;4.72;;
76204;SDS011;64986;55.672;37.628;2023-03-11T14:39:36;12.75;;;6.78;;
76204;SDS011;64986;55.672;37.628;2023-03-11T14:44:42;10.68;;;5.30;;
76204;SDS011;64986;55.672;37.628;2023-03-11T14:50:04;12.73;;;6.68;;
76204;SDS011;64986;55.672;37.628;2023-03-11T14:55:44;11.07;;;5.13;;
76204;SDS011;64986;55.672;37.628;2023-03-11T14:58:19;10.70;;;5.55;;
76204;SDS011;64986;55.672;37.628;2023-03-11T15:01:01;14.23;;;5.72;;
76204;SDS011;64986;55.672;37.628;2023-03-11T15:03:28;22.02;;;8.25;;
76204;SDS011;64986;55.672;37.628;2023-03-11T15:06:00;11.85;;;5.40;;
76204;SDS011;64986;55.672;37.628;2023-03-11T15:08:45;10.07;;;5.28;;
76204;SDS011;64986;55.672;37.628;2023-03-11T15:13:40;11.02;;;4.85;;
76204;SDS011;64986;55.672;37.628;2023-03-11T15:21:48;10.75;;;5.40;;
76204;SDS011;64986;55.672;37.628;2023-03-11T15:24:21;13.90;;;6.65;;
76204;SDS011;64986;55.672;37.628;2023-03-11T15:26:59;16.20;;;6.57;;
76204;SDS011;64986;55.672;37.628;2023-03-11T15:29:27;14.00;;;6.18;;
76204;SDS011;64986;55.672;37.628;2023-03-11T15:31:54;13.85;;;5.38;;
76204;SDS011;64986;55.672;37.628;2023-03-11T15:44:41;14.05;;;6.18;;
76204;SDS011;64986;55.672;37.628;2023-03-11T15:47:15;14.23;;;7.43;;
76204;SDS011;64986;55.672;37.628;2023-03-11T15:49:43;13.77;;;5.65;;
76204;SDS011;64986;55.672;37.628;2023-03-11T15:52:08;12.88;;;6.47;;
76204;SDS011;64986;55.672;37.628;2023-03-11T15:54:36;10.23;;;5.57;;
76204;SDS011;64986;55.672;37.628;2023-03-11T15:57:03;12.43;;;6.28;;
76204;SDS011;64986;55.672;37.628;2023-03-11T15:59:31;12.27;;;6.32;;
76204;SDS011;64986;55.672;37.628;2023-03-11T16:01:59;15.25;;;6.88;;
76204;SDS011;64986;55.672;37.628;2023-03-11T16:04:24;15.05;;;6.35;;
76204;SDS011;64986;55.672;37.628;2023-03-11T16:06:50;19.67;;;7.90;;
76204;SDS011;64986;55.672;37.628;2023-03-11T16:09:17;11.60;;;5.28;;
76204;SDS011;64986;55.672;37.628;2023-03-11T16:11:43;10.60;;;5.57;;
76204;SDS011;64986;55.672;37.628;2023-03-11T16:14:13;10.45;;;5.28;;
76204;SDS011;64986;55.672;37.628;2023-03-11T16:16:41;10.85;;;6.43;;
76204;SDS011;64986;55.672;37.628;2023-03-11T16:19:07;12.70;;;5.40;;
76204;SDS011;64986;55.672;37.628;2023-03-11T16:21:34;14.52;;;6.55;;
76204;SDS011;64986;55.672;37.628;2023-03-11T16:24:03;19.63;;;7.40;;
76204;SDS011;64986;55.672;37.628;2023-03-11T16:26:29;15.07;;;6.35;;
76204;SDS011;64986;55.672;37.628;2023-03-11T16:28:55;14.85;;;6.70;;
76204;SDS011;64986;55.672;37.628;2023-03-11T16:31:21;14.60;;;6.47;;
76204;SDS011;64986;55.672;37.628;2023-03-11T16:33:47;11.70;;;5.95;;
76204;SDS011;64986;55.672;37.628;2023-03-11T16:36:12;15.52;;;7.60;;
76204;SDS011;64986;55.672;37.628;2023-03-11T16:38:42;19.55;;;9.55;;
76204;SDS011;64986;55.672;37.628;2023-03-11T16:41:10;18.95;;;10.18;;
76204;SDS011;64986;55.672;37.628;2023-03-11T16:43:35;20.30;;;7.28;;
76204;SDS011;64986;55.672;37.628;2023-03-11T16:46:01;15.10;;;6.35;;
76204;SDS011;64986;55.672;37.628;2023-03-11T16:48:27;16.50;;;7.50;;